Aeroporto :
LOGIN :

Iscrizione | Disclaimer

   EN    FR    IT 

 










Sommario :    VFR   VFR Marginale   IFR   IFR Intensivo   IFR Molto Intensivo
Visibilità : 
Base nubi : 
>= 8 km
>= 3000ft
5 / 8 km
1000 / 3000 ft
1500m / 5 km
500 / 1000 ft
800 / 1500m
200 / 500 ft
< 800m
< 200 ft
Simboli :   Temporali  Nebbia  Neve Forte  Precipitazioni Forti  Vento > 20 kt
SIGMETs :   Varie  Temporali  Ghiacco  Turbolenza  Onda orograficha  Ceneri Vulcaniche






- Altitudine del aeroporto : 30 ft
- Codice IATA : CFN


EIDL - Donegal

ULTIMO METAR :
  • 191900Z 25015KT 9999 -RA FEW006 BKN028 09/09 Q0998

METARs OBSOLETI :
  • 191830Z 23015KT 9999 -RA FEW006 BKN028 09/09 Q0998
  • 191800Z 23019KT 8000 -RA BKN005 OVC022 9/9 Q0998
  • 191730Z 23021KT 2900 -RA BKN006 OVC005 09/09 Q0998
  • 191630Z 22024KT 4100 RA BKN06 OVC011 10/09 Q0998

TAF TAF EIDL
Valido dal 19 a 18 ore il 20 a 03 ore UTC


191700Z 1918/2003 22022G35KT 4000 -RA BKN010 OVC040
TEMPO 1918/1921 2000 RA BKN006 OVC010



MetMap, La meteo Aeronautica in un colpo d'occhio ! - Copyright ORBIFLY Dicembre 2007 - Disclaimer

ORBIFLY MET'MAP TEAM :

Programmazione e sviluppo : Alexandra Zaïnal
Concezione : Baudouin d'Aumeries
Aiuto per la programmazione : Marc-Olivier Méhu
Supporto tecnico e logistico : Manuel Goepfert
Aiuto per la traduzione : Arnaldo La Scala

Contatto : metmap@orbifly.com




FONTI E CREDITI :

   NOAA